.
WxDataArchive / Data Records for 2011-10-13
2011-10-12 October 2011 2011-10-14

Data Records for Thursday, 13 October 2011

Time	Temp	Chill	HIndex	Humid	Dewpt	 Wind 	HiWind	WindDir	Rain 	Barom 
-----	----	-----	------	-----	-----	------	------	-------	-----	----- 
00:00	51.6	51.6	51.6	92	49.4	0	0	---	0.00	29.726 
00:05	51.4	51.4	51.4	92	49.2	0	0	---	0.00	29.726 
00:10	51.3	51.3	51.3	92	49.1	0	0	---	0.00	29.726 
00:15	51.1	51.1	51.1	92	48.9	0	0	---	0.00	29.721 
00:20	51.0	51.0	51.0	92	48.8	0	0	---	0.00	29.721 
00:25	50.8	50.8	50.8	92	48.6	0	0	---	0.00	29.721 
00:30	50.8	50.8	50.8	93	48.8	0	0	---	0.00	29.719 
00:35	50.7	50.7	50.7	93	48.7	0	0	---	0.00	29.719 
00:40	50.5	50.5	50.5	93	48.6	0	0	---	0.00	29.719 
00:45	50.4	50.4	50.4	93	48.5	0	0	---	0.00	29.714 
00:50	50.2	50.2	50.2	93	48.3	0	0	---	0.00	29.714 
00:55	50.2	50.2	50.2	93	48.3	0	0	---	0.00	29.714 
01:00	50.1	50.1	50.1	93	48.2	0	0	---	0.00	29.706 
01:05	50.1	50.1	50.1	93	48.2	0	0	---	0.00	29.706 
01:10	49.9	49.9	49.9	93	48.0	0	0	---	0.00	29.706 
01:15	49.9	49.9	49.9	93	48.0	0	0	---	0.00	29.697 
01:20	49.8	49.8	49.8	93	47.9	0	0	---	0.00	29.697 
01:25	49.8	49.8	49.8	93	47.9	0	0	---	0.00	29.697 
01:30	49.8	49.8	49.8	93	47.9	0	0	---	0.00	29.696 
01:35	49.8	49.8	49.8	94	48.1	0	0	---	0.00	29.696 
01:40	49.8	49.8	49.8	94	48.1	0	0	---	0.00	29.696 
01:45	49.6	49.6	49.6	94	47.9	0	0	---	0.00	29.693 
01:50	49.6	49.6	49.6	94	47.9	0	0	---	0.00	29.693 
01:55	49.6	49.6	49.6	94	47.9	0	0	---	0.00	29.693 
02:00	49.8	49.8	49.8	94	48.1	0	0	---	0.00	29.693 
02:05	49.9	49.9	49.9	94	48.2	0	0	---	0.00	29.693 
02:10	50.2	50.2	50.2	95	48.8	0	0	---	0.00	29.693 
02:15	50.7	50.7	50.7	95	49.3	0	0	---	0.00	29.691 
02:20	51.0	51.0	51.0	95	49.6	0	1	135	0.00	29.691 
02:25	51.1	51.1	51.1	95	49.7	0	0	---	0.00	29.691 
02:30	51.1	51.1	51.1	95	49.7	0	0	---	0.00	29.689 
02:35	51.1	51.1	51.1	95	49.7	0	1	135	0.00	29.689 
02:40	51.1	51.1	51.1	95	49.7	0	1	135	0.00	29.689 
02:45	51.1	51.1	51.1	95	49.7	0	0	---	0.00	29.686 
02:50	51.1	51.1	51.1	95	49.7	0	0	---	0.00	29.686 
02:55	51.1	51.1	51.1	95	49.7	0	0	---	0.00	29.686 
03:00	51.1	51.1	51.1	95	49.7	0	0	---	0.00	29.685 
03:05	51.1	51.1	51.1	96	50.0	0	0	---	0.00	29.685 
03:10	51.1	51.1	51.1	96	50.0	0	0	---	0.00	29.685 
03:15	51.0	51.0	51.0	96	49.9	0	0	---	0.00	29.678 
03:20	51.0	51.0	51.0	96	49.9	0	1	135	0.00	29.678 
03:25	50.8	50.8	50.8	96	49.7	0	1	135	0.00	29.678 
03:30	50.5	50.5	50.5	96	49.4	0	1	135	0.00	29.673 
03:35	50.4	50.4	50.4	96	49.3	0	0	---	0.00	29.673 
03:40	50.2	50.2	50.2	96	49.1	0	0	---	0.00	29.673 
03:45	49.9	49.9	49.9	96	48.8	0	0	---	0.00	29.671 
03:50	49.8	49.8	49.8	96	48.7	0	0	---	0.00	29.671 
03:55	49.6	49.6	49.6	96	48.5	0	0	---	0.00	29.671 
04:00	49.5	49.5	49.5	96	48.4	0	0	---	0.00	29.670 
04:05	49.4	49.4	49.4	96	48.3	0	0	---	0.00	29.670 
04:10	49.2	49.2	49.2	96	48.1	0	0	---	0.00	29.670 
04:15	49.2	49.2	49.2	96	48.1	0	0	---	0.00	29.668 
04:20	49.1	49.1	49.1	96	48.0	0	0	---	0.00	29.668 
04:25	48.9	48.9	48.9	96	47.8	0	0	---	0.00	29.668 
04:30	48.8	48.8	48.8	96	47.7	0	0	---	0.00	29.661 
04:35	48.6	48.6	48.6	96	47.5	0	0	---	0.00	29.661 
04:40	48.5	48.5	48.5	96	47.4	0	0	---	0.00	29.661 
04:45	48.3	48.3	48.3	96	47.2	0	0	---	0.00	29.656 
04:50	48.3	48.3	48.3	96	47.2	0	0	---	0.00	29.656 
04:55	48.3	48.3	48.3	96	47.2	0	0	---	0.00	29.656 
05:00	48.3	48.3	48.3	96	47.2	0	0	---	0.00	29.654 
05:05	48.2	48.2	48.2	96	47.1	0	0	---	0.00	29.654 
05:10	48.2	48.2	48.2	96	47.1	0	0	---	0.00	29.654 
05:15	48.2	48.2	48.2	96	47.1	0	0	---	0.00	29.649 
05:20	48.0	48.0	48.0	96	46.9	0	0	---	0.00	29.649 
05:25	48.0	48.0	48.0	96	46.9	0	0	---	0.00	29.649 
05:30	48.0	48.0	48.0	96	46.9	0	0	---	0.00	29.647 
05:35	48.0	48.0	48.0	96	46.9	0	1	135	0.00	29.647 
05:40	47.9	47.9	47.9	96	46.8	0	0	---	0.00	29.647 
05:45	47.9	47.9	47.9	96	46.8	0	1	135	0.00	29.649 
05:50	47.9	47.9	47.9	96	46.8	0	1	135	0.00	29.649 
05:55	48.0	48.0	48.0	96	46.9	0	0	---	0.00	29.649 
06:00	48.0	48.0	48.0	96	46.9	0	0	---	0.00	29.647 
06:05	48.0	48.0	48.0	96	46.9	0	1	135	0.00	29.647 
06:10	47.9	47.9	47.9	96	46.8	0	1	135	0.00	29.647 
06:15	47.7	47.7	47.7	96	46.6	0	0	---	0.00	29.649 
06:20	47.7	47.7	47.7	96	46.6	0	0	---	0.00	29.649 
06:25	47.7	47.7	47.7	96	46.6	0	1	135	0.00	29.649 
06:30	47.7	47.7	47.7	96	46.6	0	1	135	0.00	29.644 
06:35	47.7	47.7	47.7	96	46.6	0	0	---	0.00	29.644 
06:40	47.9	47.9	47.9	96	46.8	0	0	---	0.00	29.644 
06:45	48.0	48.0	48.0	96	46.9	0	1	135	0.00	29.639 
06:50	48.0	48.0	48.0	96	46.9	0	0	---	0.00	29.639 
06:55	48.0	48.0	48.0	96	46.9	0	2	135	0.00	29.639 
07:00	48.0	48.0	48.0	96	46.9	0	0	---	0.00	29.640 
07:05	48.0	48.0	48.0	97	47.2	0	0	---	0.00	29.640 
07:10	48.2	48.2	48.2	97	47.4	0	0	---	0.00	29.640 
07:15	48.2	48.2	48.2	97	47.4	0	1	135	0.00	29.651 
07:20	48.2	48.2	48.2	97	47.4	0	1	135	0.00	29.651 
07:25	48.3	48.3	48.3	97	47.5	0	1	135	0.00	29.651 
07:30	48.3	48.3	48.3	97	47.5	0	1	135	0.00	29.643 
07:35	48.5	48.5	48.5	97	47.7	0	1	135	0.00	29.643 
07:40	48.6	48.6	48.6	97	47.8	0	0	---	0.00	29.643 
07:45	48.6	48.6	48.6	97	47.8	0	1	135	0.00	29.639 
07:50	48.6	48.6	48.6	97	47.8	0	3	135	0.00	29.639 
07:55	48.6	48.6	48.6	97	47.8	0	1	135	0.00	29.639 
08:00	48.8	48.8	48.8	97	48.0	0	1	135	0.00	29.635 
08:05	48.9	48.9	48.9	97	48.1	0	1	135	0.00	29.635 
08:10	49.1	49.1	49.1	97	48.3	0	1	135	0.00	29.635 
08:15	49.1	49.1	49.1	97	48.3	0	2	135	0.00	29.637 
08:20	49.2	49.2	49.2	97	48.4	0	1	135	0.00	29.637 
08:25	49.2	49.2	49.2	97	48.4	0	1	135	0.00	29.637 
08:30	49.4	49.4	49.4	97	48.6	0	1	135	0.00	29.637 
08:35	49.4	49.4	49.4	97	48.6	0	2	135	0.00	29.637 
08:40	49.4	49.4	49.4	97	48.6	0	1	135	0.00	29.637 
08:45	49.5	49.5	49.5	97	48.7	0	1	135	0.00	29.634 
08:50	49.6	49.6	49.6	97	48.8	0	2	135	0.00	29.634 
08:55	49.8	49.8	49.8	97	49.0	0	1	135	0.00	29.634 
09:00	49.8	49.8	49.8	97	49.0	0	2	135	0.00	29.633 
09:05	49.8	49.8	49.8	97	49.0	0	1	135	0.00	29.633 
09:10	49.9	49.9	49.9	97	49.1	0	4	135	0.00	29.633 
09:15	49.9	49.9	49.9	97	49.1	0	4	90	0.00	29.625 
09:20	50.2	50.2	50.2	97	49.4	0	2	90	0.00	29.625 
09:25	50.4	50.4	50.4	97	49.6	0	2	90	0.00	29.625 
09:30	50.7	50.7	50.7	97	49.9	0	2	90	0.00	29.621 
09:35	50.7	50.7	50.7	97	49.9	0	2	90	0.00	29.621 
09:40	50.8	50.8	50.8	97	50.0	0	2	90	0.00	29.621 
09:45	51.0	51.0	51.0	97	50.2	0	3	90	0.00	29.623 
09:50	51.3	51.3	51.3	97	50.5	0	1	90	0.00	29.623 
09:55	51.4	51.4	51.4	97	50.6	0	1	90	0.00	29.623 
10:00	51.7	51.7	51.7	98	51.2	0	1	90	0.00	29.621 
10:05	52.0	52.0	52.0	98	51.5	0	1	90	0.00	29.621 
10:10	52.2	52.2	52.2	98	51.7	1	3	90	0.00	29.621 
10:15	52.3	52.3	52.3	98	51.8	0	2	90	0.00	29.617 
10:20	52.5	52.5	52.5	98	52.0	0	3	90	0.00	29.617 
10:25	52.8	52.8	52.8	98	52.2	0	2	90	0.00	29.617 
10:30	53.1	53.1	53.1	98	52.5	0	2	90	0.00	29.606 
10:35	53.3	53.3	53.3	98	52.7	0	2	90	0.00	29.606 
10:40	53.5	53.5	53.5	98	52.9	0	3	90	0.00	29.606 
10:45	53.6	53.6	53.6	98	53.0	0	1	90	0.00	29.609 
10:50	53.8	53.8	53.8	98	53.2	0	1	90	0.00	29.609 
10:55	53.9	53.9	53.9	98	53.3	0	1	90	0.00	29.609 
11:00	54.2	54.2	54.2	98	53.6	0	0	---	0.00	29.606 
11:05	54.4	54.4	54.4	98	53.8	0	1	90	0.00	29.606 
11:10	54.4	54.4	54.4	98	53.8	0	2	90	0.00	29.606 
11:15	54.5	54.5	54.5	98	53.9	0	2	90	0.00	29.605 
11:20	54.8	54.8	54.8	98	54.2	0	1	90	0.00	29.605 
11:25	55.1	55.1	55.1	98	54.5	0	2	90	0.00	29.605 
11:30	55.3	55.3	55.3	98	54.7	0	2	90	0.00	29.604 
11:35	55.4	55.4	55.4	98	54.8	0	1	90	0.00	29.604 
11:40	55.7	55.7	55.7	98	55.1	0	2	90	0.00	29.604 
11:45	55.9	55.9	55.9	98	55.3	0	0	---	0.00	29.590 
11:50	56.2	56.2	56.2	98	55.6	0	2	90	0.00	29.590 
11:55	56.3	56.3	56.3	98	55.7	0	1	90	0.00	29.590 
12:00	56.5	56.5	56.5	98	55.9	0	2	90	0.00	29.588 
12:05	56.7	56.7	56.7	98	56.1	1	4	90	0.00	29.588 
12:10	56.9	56.9	56.9	98	56.3	1	2	90	0.00	29.588 
12:15	56.9	56.9	56.9	98	56.3	0	2	90	0.00	29.589 
12:20	57.0	57.0	57.0	98	56.4	0	1	90	0.00	29.589 
12:25	57.5	57.5	57.5	98	56.9	0	3	90	0.00	29.589 
12:30	57.8	57.8	57.8	98	57.2	0	2	90	0.00	29.581 
12:35	58.3	58.3	58.3	98	57.7	0	1	90	0.00	29.581 
12:40	58.4	58.4	58.4	98	57.8	0	2	90	0.00	29.581 
12:45	58.6	58.6	58.6	98	58.0	0	3	90	0.00	29.575 
12:50	58.7	58.7	58.7	98	58.1	0	2	90	0.00	29.575 
12:55	58.9	58.9	58.9	98	58.3	0	1	90	0.00	29.575 
13:00	59.0	59.0	59.0	97	58.1	0	1	90	0.00	29.571 
13:05	59.0	59.0	59.0	97	58.1	1	3	90	0.00	29.571 
13:10	59.2	59.2	59.2	97	58.3	1	3	90	0.00	29.571 
13:15	59.3	59.3	59.3	97	58.4	1	3	90	0.00	29.568 
13:20	59.5	59.5	59.5	97	58.6	1	3	90	0.00	29.568 
13:25	59.8	59.8	59.8	97	58.9	0	1	90	0.00	29.568 
13:30	60.1	60.1	60.1	97	59.2	0	2	90	0.00	29.553 
13:35	60.1	60.1	60.1	97	59.2	1	3	90	0.00	29.553 
13:40	60.2	60.2	60.2	96	59.1	0	1	90	0.00	29.553 
13:45	60.4	60.4	60.4	96	59.3	0	1	90	0.00	29.549 
13:50	60.5	60.5	60.5	96	59.4	0	2	90	0.00	29.549 
13:55	60.7	60.7	60.7	96	59.6	0	1	90	0.00	29.549 
14:00	61.0	61.0	61.0	95	59.6	0	1	90	0.00	29.536 
14:05	61.2	61.2	61.2	94	59.5	0	2	90	0.00	29.536 
14:10	61.5	61.5	61.5	93	59.5	0	1	90	0.00	29.536 
14:15	61.5	61.5	61.5	92	59.2	0	2	90	0.00	29.531 
14:20	61.8	61.8	61.8	92	59.4	0	2	90	0.00	29.531 
14:25	62.1	62.1	62.1	90	59.1	0	5	90	0.00	29.531 
14:30	62.4	62.4	62.4	89	59.1	1	5	90	0.00	29.524 
14:35	62.6	62.6	62.6	88	59.0	1	3	90	0.00	29.524 
14:40	62.9	62.9	62.9	87	59.0	0	3	90	0.00	29.524 
14:45	63.2	63.2	63.2	86	58.9	0	2	90	0.00	29.516 
14:50	63.5	63.5	63.5	85	58.9	0	2	90	0.00	29.516 
14:55	63.9	63.9	63.9	84	59.0	0	1	90	0.00	29.516 
15:00	64.3	64.3	64.3	84	59.4	0	1	90	0.00	29.510 
15:05	64.5	64.5	64.5	81	58.5	0	3	90	0.00	29.510 
15:10	64.7	64.7	64.7	80	58.4	0	2	90	0.00	29.510 
15:15	64.8	64.8	64.8	80	58.5	0	1	90	0.00	29.503 
15:20	64.8	64.8	64.8	79	58.1	0	1	90	0.00	29.503 
15:25	64.8	64.8	64.8	79	58.1	0	1	90	0.00	29.503 
15:30	64.8	64.8	64.8	80	58.5	0	1	90	0.01	29.497 
15:35	64.8	64.8	64.8	81	58.8	0	2	90	0.03	29.497 
15:40	64.5	64.5	64.5	83	59.2	0	1	90	0.00	29.497 
15:45	63.9	63.9	63.9	84	59.0	0	0	---	0.02	29.498 
15:50	63.4	63.4	63.4	86	59.1	0	3	90	0.07	29.498 
15:55	62.7	62.7	62.7	88	59.1	0	2	90	0.07	29.498 
16:00	62.3	62.3	62.3	89	59.0	0	3	90	0.00	29.496 
16:05	62.1	62.1	62.1	90	59.1	0	2	112	0.01	29.496 
16:10	61.8	61.8	61.8	91	59.1	0	2	112	0.00	29.496 
16:15	61.8	61.8	61.8	92	59.4	0	1	112	0.01	29.490 
16:20	61.6	61.6	61.6	92	59.2	0	1	135	0.00	29.490 
16:25	61.6	61.6	61.6	92	59.2	0	0	---	0.00	29.490 
16:30	61.6	61.6	61.6	92	59.2	0	0	---	0.00	29.487 
16:35	61.5	61.5	61.5	93	59.5	0	1	135	0.00	29.487 
16:40	61.5	61.5	61.5	93	59.5	0	0	---	0.00	29.487 
16:45	61.5	61.5	61.5	93	59.5	0	0	---	0.00	29.479 
16:50	61.5	61.5	61.5	93	59.5	0	0	---	0.00	29.479 
16:55	61.5	61.5	61.5	93	59.5	0	0	---	0.00	29.479 
17:00	61.6	61.6	61.6	93	59.6	0	0	---	0.00	29.476 
17:05	61.6	61.6	61.6	94	59.9	0	0	---	0.00	29.476 
17:10	61.6	61.6	61.6	94	59.9	0	1	135	0.00	29.476 
17:15	61.6	61.6	61.6	94	59.9	0	0	---	0.00	29.474 
17:20	61.6	61.6	61.6	94	59.9	0	0	---	0.00	29.474 
17:25	61.5	61.5	61.5	94	59.8	0	1	135	0.00	29.474 
17:30	61.5	61.5	61.5	94	59.8	0	0	---	0.00	29.474 
17:35	61.5	61.5	61.5	94	59.8	0	0	---	0.00	29.474 
17:40	61.3	61.3	61.3	94	59.6	0	1	90	0.00	29.474 
17:45	61.3	61.3	61.3	94	59.6	0	1	90	0.00	29.468 
17:50	61.2	61.2	61.2	94	59.5	0	1	90	0.00	29.468 
17:55	61.2	61.2	61.2	94	59.5	0	1	90	0.00	29.468 
18:00	61.0	61.0	61.0	94	59.3	0	0	---	0.00	29.467 
18:05	61.0	61.0	61.0	94	59.3	0	0	---	0.00	29.467 
18:10	61.0	61.0	61.0	94	59.3	0	1	90	0.00	29.467 
18:15	60.9	60.9	60.9	94	59.2	0	4	90	0.00	29.467 
18:20	60.7	60.7	60.7	94	59.0	0	1	112	0.00	29.467 
18:25	60.7	60.7	60.7	94	59.0	0	2	112	0.00	29.467 
18:30	60.5	60.5	60.5	93	58.5	0	2	112	0.00	29.468 
18:35	60.5	60.5	60.5	93	58.5	0	2	112	0.00	29.468 
18:40	60.5	60.5	60.5	93	58.5	0	2	112	0.00	29.468 
18:45	60.4	60.4	60.4	93	58.4	0	2	112	0.00	29.464 
18:50	60.4	60.4	60.4	93	58.4	0	1	112	0.00	29.464 
18:55	60.4	60.4	60.4	93	58.4	0	1	112	0.00	29.464 
19:00	60.4	60.4	60.4	93	58.4	0	1	112	0.00	29.462 
19:05	60.4	60.4	60.4	93	58.4	0	1	112	0.00	29.462 
19:10	60.2	60.2	60.2	93	58.2	0	1	112	0.00	29.462 
19:15	60.2	60.2	60.2	94	58.5	0	0	---	0.00	29.461 
19:20	60.2	60.2	60.2	94	58.5	0	1	112	0.00	29.461 
19:25	60.2	60.2	60.2	94	58.5	0	2	112	0.00	29.461 
19:30	60.2	60.2	60.2	94	58.5	0	0	---	0.00	29.461 
19:35	60.2	60.2	60.2	94	58.5	0	0	---	0.00	29.461 
19:40	60.2	60.2	60.2	94	58.5	0	1	112	0.00	29.461 
19:45	60.2	60.2	60.2	94	58.5	0	1	112	0.00	29.461 
19:50	60.2	60.2	60.2	94	58.5	0	1	112	0.00	29.461 
19:55	60.2	60.2	60.2	94	58.5	0	0	---	0.00	29.461 
20:00	60.1	60.1	60.1	94	58.4	0	2	112	0.00	29.460 
20:05	60.1	60.1	60.1	94	58.4	0	1	112	0.00	29.460 
20:10	60.1	60.1	60.1	94	58.4	0	0	---	0.00	29.460 
20:15	60.1	60.1	60.1	94	58.4	0	0	---	0.00	29.458 
20:20	59.9	59.9	59.9	94	58.2	0	0	---	0.00	29.458 
20:25	59.9	59.9	59.9	94	58.2	0	0	---	0.00	29.458 
20:30	59.9	59.9	59.9	94	58.2	0	0	---	0.00	29.456 
20:35	59.9	59.9	59.9	94	58.2	0	0	---	0.00	29.456 
20:40	59.8	59.8	59.8	95	58.4	0	0	---	0.00	29.456 
20:45	59.8	59.8	59.8	95	58.4	0	1	112	0.00	29.452 
20:50	59.8	59.8	59.8	95	58.4	0	2	112	0.00	29.452 
20:55	59.8	59.8	59.8	95	58.4	0	2	270	0.00	29.452 
21:00	59.6	59.6	59.6	95	58.2	0	1	270	0.00	29.448 
21:05	59.6	59.6	59.6	94	57.9	0	0	---	0.00	29.448 
21:10	59.6	59.6	59.6	95	58.2	0	2	90	0.00	29.448 
21:15	59.6	59.6	59.6	95	58.2	0	3	90	0.00	29.443 
21:20	59.6	59.6	59.6	95	58.2	0	1	90	0.00	29.443 
21:25	59.5	59.5	59.5	95	58.1	0	1	90	0.00	29.443 
21:30	59.5	59.5	59.5	95	58.1	0	1	90	0.00	29.441 
21:35	59.5	59.5	59.5	95	58.1	0	1	90	0.00	29.441 
21:40	59.3	59.3	59.3	95	57.9	0	1	90	0.00	29.441 
21:45	59.3	59.3	59.3	95	57.9	0	0	---	0.00	29.443 
21:50	59.3	59.3	59.3	95	57.9	0	0	---	0.00	29.443 
21:55	59.2	59.2	59.2	95	57.8	0	1	90	0.00	29.443 
22:00	59.2	59.2	59.2	95	57.8	0	0	---	0.00	29.440 
22:05	59.2	59.2	59.2	95	57.8	0	0	---	0.00	29.440 
22:10	59.2	59.2	59.2	95	57.8	0	1	90	0.04	29.440 
22:15	59.2	59.2	59.2	95	57.8	0	2	90	0.02	29.441 
22:20	59.0	59.0	59.0	95	57.6	1	3	90	0.01	29.441 
22:25	58.7	58.7	58.7	95	57.3	0	1	248	0.00	29.441 
22:30	58.7	58.7	58.7	95	57.3	1	3	248	0.00	29.439 
22:35	58.6	58.6	58.6	95	57.2	1	2	248	0.00	29.439 
22:40	58.6	58.6	58.6	95	57.2	1	3	248	0.00	29.439 
22:45	58.6	58.6	58.6	95	57.2	2	4	270	0.01	29.437 
22:50	58.4	58.4	58.4	95	57.0	3	5	270	0.00	29.437 
22:55	58.3	58.3	58.3	95	56.9	3	6	270	0.01	29.437 
23:00	58.1	58.1	58.1	95	56.7	1	4	270	0.00	29.432 
23:05	58.1	58.1	58.1	95	56.7	2	5	270	0.00	29.432 
23:10	58.0	58.0	58.0	95	56.6	2	5	270	0.01	29.432 
23:15	58.0	58.0	58.0	95	56.6	2	3	270	0.00	29.434 
23:20	57.8	57.8	57.8	95	56.4	1	4	315	0.00	29.434 
23:25	57.8	57.8	57.8	95	56.4	2	5	292	0.00	29.434 
23:30	57.6	57.6	57.6	95	56.2	3	7	270	0.00	29.439 
23:35	57.3	57.3	57.3	95	55.9	4	9	292	0.00	29.439 
23:40	57.3	57.3	57.3	95	55.9	2	7	315	0.00	29.439 
23:45	57.2	57.2	57.2	94	55.5	3	7	270	0.00	29.438 
23:50	57.2	57.2	57.2	94	55.5	3	7	270	0.00	29.438 
23:55	56.7	56.7	56.7	93	54.7	4	8	270	0.01	29.438 

CoCoRaHS
IN-AL-39
A2 Web Hosting
Creative Commons License
GoDaddy
search engine by freefind advanced

loaded 2018-12-19 10:19:59 • last modified 2010-11-18 10:43:29
Privacy PolicyDisclaimer
• wx.awcolley.com is powered by PmWiki v.2002016 •
• all content (unless otherwise noted) © 2018 A W Colley